sensor_id;sensor_type;location;lat;lon;timestamp;pressure;altitude;pressure_sealevel;temperature;humidity
61039;BME280;46919;45.816;3.104;2023-02-12T00:02:06;99558.09;;;-2.50;78.36
61039;BME280;46919;45.816;3.104;2023-02-12T00:04:32;99562.53;;;-2.50;78.63
61039;BME280;46919;45.816;3.104;2023-02-12T00:06:57;99550.53;;;-2.56;78.88
61039;BME280;46919;45.816;3.104;2023-02-12T00:09:23;99547.34;;;-2.61;79.55
61039;BME280;46919;45.816;3.104;2023-02-12T00:11:48;99538.09;;;-2.68;79.97
61039;BME280;46919;45.816;3.104;2023-02-12T00:14:13;99535.56;;;-2.70;79.66
61039;BME280;46919;45.816;3.104;2023-02-12T00:16:39;99537.47;;;-2.72;79.30
61039;BME280;46919;45.816;3.104;2023-02-12T00:19:04;99536.63;;;-2.72;79.83
61039;BME280;46919;45.816;3.104;2023-02-12T00:21:30;99531.72;;;-2.79;79.61
61039;BME280;46919;45.816;3.104;2023-02-12T00:23:55;99524.91;;;-2.83;80.16
61039;BME280;46919;45.816;3.104;2023-02-12T00:26:22;99525.00;;;-2.84;79.88
61039;BME280;46919;45.816;3.104;2023-02-12T00:28:48;99523.53;;;-2.88;80.19
61039;BME280;46919;45.816;3.104;2023-02-12T00:31:16;99518.34;;;-2.90;80.14
61039;BME280;46919;45.816;3.104;2023-02-12T00:33:42;99507.97;;;-2.93;80.44
61039;BME280;46919;45.816;3.104;2023-02-12T00:36:09;99515.69;;;-2.90;79.36
61039;BME280;46919;45.816;3.104;2023-02-12T00:38:37;99520.41;;;-2.95;79.65
61039;BME280;46919;45.816;3.104;2023-02-12T00:41:03;99520.50;;;-2.97;80.12
61039;BME280;46919;45.816;3.104;2023-02-12T00:43:28;99517.56;;;-2.92;79.80
61039;BME280;46919;45.816;3.104;2023-02-12T00:45:54;99517.66;;;-2.94;79.86
61039;BME280;46919;45.816;3.104;2023-02-12T00:48:19;99509.28;;;-3.00;80.00
61039;BME280;46919;45.816;3.104;2023-02-12T00:50:47;99516.56;;;-3.04;80.03
61039;BME280;46919;45.816;3.104;2023-02-12T00:53:12;99514.22;;;-3.08;79.35
61039;BME280;46919;45.816;3.104;2023-02-12T00:55:38;99510.94;;;-3.12;80.15
61039;BME280;46919;45.816;3.104;2023-02-12T00:58:04;99506.47;;;-3.12;79.79
61039;BME280;46919;45.816;3.104;2023-02-12T01:00:30;99505.75;;;-3.14;80.39
61039;BME280;46919;45.816;3.104;2023-02-12T01:02:55;99506.03;;;-3.18;80.32
61039;BME280;46919;45.816;3.104;2023-02-12T01:05:20;99507.63;;;-3.16;80.09
61039;BME280;46919;45.816;3.104;2023-02-12T01:07:50;99511.78;;;-3.12;80.15
61039;BME280;46919;45.816;3.104;2023-02-12T01:10:16;99520.84;;;-3.16;80.09
61039;BME280;46919;45.816;3.104;2023-02-12T01:12:42;99529.38;;;-3.25;80.49
61039;BME280;46919;45.816;3.104;2023-02-12T01:15:08;99526.94;;;-3.28;80.09
61039;BME280;46919;45.816;3.104;2023-02-12T01:17:35;99534.28;;;-3.33;80.58
61039;BME280;46919;45.816;3.104;2023-02-12T01:20:01;99523.22;;;-3.40;80.79
61039;BME280;46919;45.816;3.104;2023-02-12T01:22:26;99526.75;;;-3.39;80.59
61039;BME280;46919;45.816;3.104;2023-02-12T01:24:52;99524.66;;;-3.34;80.18
61039;BME280;46919;45.816;3.104;2023-02-12T01:27:17;99519.56;;;-3.37;80.20
61039;BME280;46919;45.816;3.104;2023-02-12T01:29:43;99522.94;;;-3.35;80.42
61039;BME280;46919;45.816;3.104;2023-02-12T01:32:09;99513.41;;;-3.38;80.42
61039;BME280;46919;45.816;3.104;2023-02-12T01:34:36;99527.88;;;-3.43;80.54
61039;BME280;46919;45.816;3.104;2023-02-12T01:37:01;99535.72;;;-3.42;80.70
61039;BME280;46919;45.816;3.104;2023-02-12T01:39:26;99527.59;;;-3.39;80.90
61039;BME280;46919;45.816;3.104;2023-02-12T01:41:52;99533.06;;;-3.42;80.95
61039;BME280;46919;45.816;3.104;2023-02-12T01:44:20;99529.97;;;-3.49;81.21
61039;BME280;46919;45.816;3.104;2023-02-12T01:46:54;99519.66;;;-3.53;81.78
61039;BME280;46919;45.816;3.104;2023-02-12T01:49:24;99525.16;;;-3.56;81.60
61039;BME280;46919;45.816;3.104;2023-02-12T01:51:58;99516.25;;;-3.55;81.77
61039;BME280;46919;45.816;3.104;2023-02-12T01:54:27;99523.91;;;-3.51;81.76
61039;BME280;46919;45.816;3.104;2023-02-12T01:56:53;99525.88;;;-3.54;81.88
61039;BME280;46919;45.816;3.104;2023-02-12T01:59:20;99539.94;;;-3.54;81.26
61039;BME280;46919;45.816;3.104;2023-02-12T02:01:46;99528.63;;;-3.56;81.44
61039;BME280;46919;45.816;3.104;2023-02-12T02:04:15;99533.34;;;-3.61;81.12
61039;BME280;46919;45.816;3.104;2023-02-12T02:06:53;99528.81;;;-3.59;81.38
61039;BME280;46919;45.816;3.104;2023-02-12T02:09:20;99534.09;;;-3.59;81.68
61039;BME280;46919;45.816;3.104;2023-02-12T02:11:46;99525.53;;;-3.62;81.94
61039;BME280;46919;45.816;3.104;2023-02-12T02:14:30;99520.69;;;-3.70;82.06
61039;BME280;46919;45.816;3.104;2023-02-12T02:23:07;99513.25;;;-3.78;82.20
61039;BME280;46919;45.816;3.104;2023-02-12T02:26:01;99518.44;;;-3.76;81.74
61039;BME280;46919;45.816;3.104;2023-02-12T02:31:48;99518.81;;;-3.68;81.59
61039;BME280;46919;45.816;3.104;2023-02-12T02:34:40;99523.34;;;-3.70;81.86
61039;BME280;46919;45.816;3.104;2023-02-12T02:37:29;99527.41;;;-3.79;82.24
61039;BME280;46919;45.816;3.104;2023-02-12T02:45:14;99509.75;;;-3.93;82.41
61039;BME280;46919;45.816;3.104;2023-02-12T02:47:49;99509.19;;;-3.98;82.25
61039;BME280;46919;45.816;3.104;2023-02-12T02:50:22;99512.66;;;-3.97;81.99
61039;BME280;46919;45.816;3.104;2023-02-12T02:52:56;99510.03;;;-3.97;82.45
61039;BME280;46919;45.816;3.104;2023-02-12T02:55:26;99510.97;;;-3.98;82.10
61039;BME280;46919;45.816;3.104;2023-02-12T02:57:56;99512.22;;;-3.90;81.96
61039;BME280;46919;45.816;3.104;2023-02-12T03:00:37;99509.66;;;-3.91;82.75
61039;BME280;46919;45.816;3.104;2023-02-12T03:03:22;99503.81;;;-3.96;82.64
61039;BME280;46919;45.816;3.104;2023-02-12T03:05:49;99505.22;;;-4.05;83.32
61039;BME280;46919;45.816;3.104;2023-02-12T03:08:18;99502.84;;;-4.10;83.17
61039;BME280;46919;45.816;3.104;2023-02-12T03:11:02;99500.38;;;-4.13;83.21
61039;BME280;46919;45.816;3.104;2023-02-12T03:13:33;99507.72;;;-4.18;83.47
61039;BME280;46919;45.816;3.104;2023-02-12T03:16:03;99505.38;;;-4.23;84.36
61039;BME280;46919;45.816;3.104;2023-02-12T03:18:40;99509.81;;;-4.23;84.13
61039;BME280;46919;45.816;3.104;2023-02-12T03:21:14;99501.97;;;-4.25;83.31
61039;BME280;46919;45.816;3.104;2023-02-12T03:23:46;99501.19;;;-4.27;83.58
61039;BME280;46919;45.816;3.104;2023-02-12T03:26:38;99514.56;;;-4.30;83.52
61039;BME280;46919;45.816;3.104;2023-02-12T03:29:04;99512.53;;;-4.25;83.33
61039;BME280;46919;45.816;3.104;2023-02-12T03:37:16;99512.03;;;-4.31;84.29
61039;BME280;46919;45.816;3.104;2023-02-12T03:39:50;99512.03;;;-4.31;84.60
61039;BME280;46919;45.816;3.104;2023-02-12T03:42:26;99511.53;;;-4.38;84.65
61039;BME280;46919;45.816;3.104;2023-02-12T03:45:01;99517.16;;;-4.44;84.97
61039;BME280;46919;45.816;3.104;2023-02-12T03:52:33;99508.50;;;-4.46;83.80
61039;BME280;46919;45.816;3.104;2023-02-12T03:54:59;99505.13;;;-4.48;84.31
61039;BME280;46919;45.816;3.104;2023-02-12T03:57:27;99506.13;;;-4.51;84.32
61039;BME280;46919;45.816;3.104;2023-02-12T03:59:57;99499.06;;;-4.50;84.37
61039;BME280;46919;45.816;3.104;2023-02-12T04:02:23;99506.22;;;-4.52;84.38
61039;BME280;46919;45.816;3.104;2023-02-12T04:04:50;99503.66;;;-4.54;84.83
61039;BME280;46919;45.816;3.104;2023-02-12T04:07:16;99510.56;;;-4.51;84.07
61039;BME280;46919;45.816;3.104;2023-02-12T04:09:42;99504.44;;;-4.52;84.07
61039;BME280;46919;45.816;3.104;2023-02-12T04:17:28;99494.16;;;-4.57;84.20
61039;BME280;46919;45.816;3.104;2023-02-12T04:29:23;99505.69;;;-4.74;85.40
61039;BME280;46919;45.816;3.104;2023-02-12T04:31:32;99501.59;;;-4.79;85.30
61039;BME280;46919;45.816;3.104;2023-02-12T04:36:36;99499.81;;;-4.79;85.48
61039;BME280;46919;45.816;3.104;2023-02-12T04:39:08;99503.13;;;-4.75;86.03
61039;BME280;46919;45.816;3.104;2023-02-12T04:41:37;99511.03;;;-4.75;85.85
61039;BME280;46919;45.816;3.104;2023-02-12T04:44:18;99516.41;;;-4.77;85.44
61039;BME280;46919;45.816;3.104;2023-02-12T04:46:46;99520.22;;;-4.82;85.33
61039;BME280;46919;45.816;3.104;2023-02-12T04:49:15;99522.88;;;-4.82;85.91
61039;BME280;46919;45.816;3.104;2023-02-12T04:51:40;99518.81;;;-4.88;85.48
61039;BME280;46919;45.816;3.104;2023-02-12T04:54:06;99523.41;;;-4.92;87.05
61039;BME280;46919;45.816;3.104;2023-02-12T04:56:31;99528.00;;;-4.95;86.01
61039;BME280;46919;45.816;3.104;2023-02-12T04:58:57;99535.97;;;-4.97;85.79
61039;BME280;46919;45.816;3.104;2023-02-12T05:01:23;99535.06;;;-4.96;85.80
61039;BME280;46919;45.816;3.104;2023-02-12T05:03:50;99533.59;;;-4.85;84.56
61039;BME280;46919;45.816;3.104;2023-02-12T05:06:16;99531.31;;;-4.76;84.96
61039;BME280;46919;45.816;3.104;2023-02-12T05:08:41;99525.50;;;-4.82;85.31
61039;BME280;46919;45.816;3.104;2023-02-12T05:11:08;99518.06;;;-4.90;86.27
61039;BME280;46919;45.816;3.104;2023-02-12T05:13:34;99525.44;;;-4.97;86.50
61039;BME280;46919;45.816;3.104;2023-02-12T05:16:03;99518.47;;;-4.98;86.96
61039;BME280;46919;45.816;3.104;2023-02-12T05:18:30;99516.44;;;-4.93;86.05
61039;BME280;46919;45.816;3.104;2023-02-12T05:20:59;99506.88;;;-4.95;86.23
61039;BME280;46919;45.816;3.104;2023-02-12T05:23:30;99511.50;;;-4.99;85.88
61039;BME280;46919;45.816;3.104;2023-02-12T05:25:59;99506.22;;;-4.99;86.08
61039;BME280;46919;45.816;3.104;2023-02-12T05:28:26;99498.31;;;-4.99;86.31
61039;BME280;46919;45.816;3.104;2023-02-12T05:30:51;99495.84;;;-5.02;86.77
61039;BME280;46919;45.816;3.104;2023-02-12T05:33:17;99487.00;;;-5.01;86.93
61039;BME280;46919;45.816;3.104;2023-02-12T05:35:42;99490.56;;;-5.02;86.84
61039;BME280;46919;45.816;3.104;2023-02-12T05:38:08;99478.31;;;-5.03;86.15
61039;BME280;46919;45.816;3.104;2023-02-12T05:40:33;99482.66;;;-5.02;87.20
61039;BME280;46919;45.816;3.104;2023-02-12T05:43:00;99474.59;;;-4.99;86.54
61039;BME280;46919;45.816;3.104;2023-02-12T05:45:26;99475.59;;;-5.01;86.59
61039;BME280;46919;45.816;3.104;2023-02-12T05:47:54;99476.47;;;-5.01;86.13
61039;BME280;46919;45.816;3.104;2023-02-12T05:50:20;99474.00;;;-5.04;86.99
61039;BME280;46919;45.816;3.104;2023-02-12T05:52:45;99476.81;;;-5.07;86.82
61039;BME280;46919;45.816;3.104;2023-02-12T05:55:11;99476.97;;;-5.10;87.46
61039;BME280;46919;45.816;3.104;2023-02-12T05:57:36;99483.75;;;-5.06;85.76
61039;BME280;46919;45.816;3.104;2023-02-12T06:00:05;99479.44;;;-5.07;85.71
61039;BME280;46919;45.816;3.104;2023-02-12T06:02:32;99478.06;;;-5.14;86.45
61039;BME280;46919;45.816;3.104;2023-02-12T06:04:58;99479.88;;;-5.15;85.88
61039;BME280;46919;45.816;3.104;2023-02-12T06:07:24;99484.47;;;-5.18;86.47
61039;BME280;46919;45.816;3.104;2023-02-12T06:09:49;99485.47;;;-5.21;87.38
61039;BME280;46919;45.816;3.104;2023-02-12T06:12:15;99477.00;;;-5.26;87.34
61039;BME280;46919;45.816;3.104;2023-02-12T06:14:40;99483.28;;;-5.29;88.33
61039;BME280;46919;45.816;3.104;2023-02-12T06:17:06;99491.00;;;-5.25;88.33
61039;BME280;46919;45.816;3.104;2023-02-12T06:19:32;99495.44;;;-5.26;88.26
61039;BME280;46919;45.816;3.104;2023-02-12T06:21:57;99488.28;;;-5.24;86.85
61039;BME280;46919;45.816;3.104;2023-02-12T06:24:23;99488.53;;;-5.29;86.69
61039;BME280;46919;45.816;3.104;2023-02-12T06:26:49;99491.97;;;-5.26;87.09
61039;BME280;46919;45.816;3.104;2023-02-12T06:29:15;99492.13;;;-5.30;87.70
61039;BME280;46919;45.816;3.104;2023-02-12T06:31:41;99497.56;;;-5.33;87.54
61039;BME280;46919;45.816;3.104;2023-02-12T06:34:09;99501.28;;;-5.37;87.84
61039;BME280;46919;45.816;3.104;2023-02-12T06:36:37;99506.06;;;-5.43;87.61
61039;BME280;46919;45.816;3.104;2023-02-12T06:39:03;99500.53;;;-5.39;87.53
61039;BME280;46919;45.816;3.104;2023-02-12T06:41:29;99497.03;;;-5.39;88.19
61039;BME280;46919;45.816;3.104;2023-02-12T06:43:54;99493.47;;;-5.38;88.56
61039;BME280;46919;45.816;3.104;2023-02-12T06:46:20;99490.00;;;-5.39;88.70
61039;BME280;46919;45.816;3.104;2023-02-12T06:48:46;99495.34;;;-5.40;87.76
61039;BME280;46919;45.816;3.104;2023-02-12T06:51:14;99491.00;;;-5.41;88.50
61039;BME280;46919;45.816;3.104;2023-02-12T06:53:39;99492.81;;;-5.42;88.65
61039;BME280;46919;45.816;3.104;2023-02-12T06:56:07;99500.63;;;-5.40;87.77
61039;BME280;46919;45.816;3.104;2023-02-12T06:58:41;99503.19;;;-5.39;87.46
61039;BME280;46919;45.816;3.104;2023-02-12T07:01:21;99504.69;;;-5.35;87.22
61039;BME280;46919;45.816;3.104;2023-02-12T07:03:49;99511.66;;;-5.02;86.20
61039;BME280;46919;45.816;3.104;2023-02-12T07:06:15;99508.34;;;-4.89;86.39
61039;BME280;46919;45.816;3.104;2023-02-12T07:08:41;99510.13;;;-4.74;85.05
61039;BME280;46919;45.816;3.104;2023-02-12T07:11:07;99513.59;;;-4.74;85.72
61039;BME280;46919;45.816;3.104;2023-02-12T07:13:33;99515.78;;;-4.66;85.96
61039;BME280;46919;45.816;3.104;2023-02-12T07:16:14;99522.50;;;-4.60;85.47
61039;BME280;46919;45.816;3.104;2023-02-12T07:18:41;99542.25;;;-4.67;86.35
61039;BME280;46919;45.816;3.104;2023-02-12T07:21:08;99537.16;;;-4.70;86.53
61039;BME280;46919;45.816;3.104;2023-02-12T07:23:34;99544.03;;;-4.68;87.16
61039;BME280;46919;45.816;3.104;2023-02-12T07:26:05;99542.94;;;-4.64;87.52
61039;BME280;46919;45.816;3.104;2023-02-12T07:28:31;99549.47;;;-4.55;86.80
61039;BME280;46919;45.816;3.104;2023-02-12T07:33:33;99556.66;;;-4.43;87.26
61039;BME280;46919;45.816;3.104;2023-02-12T07:36:03;99551.56;;;-4.46;87.04
61039;BME280;46919;45.816;3.104;2023-02-12T07:38:29;99548.75;;;-4.43;87.25
61039;BME280;46919;45.816;3.104;2023-02-12T07:40:54;99545.09;;;-4.40;86.96
61039;BME280;46919;45.816;3.104;2023-02-12T07:43:23;99551.13;;;-4.38;87.82
61039;BME280;46919;45.816;3.104;2023-02-12T07:45:48;99555.38;;;-4.35;87.36
61039;BME280;46919;45.816;3.104;2023-02-12T07:48:14;99550.03;;;-4.34;87.77
61039;BME280;46919;45.816;3.104;2023-02-12T07:50:39;99553.91;;;-4.25;87.96
61039;BME280;46919;45.816;3.104;2023-02-12T07:53:05;99534.78;;;-4.14;87.77
61039;BME280;46919;45.816;3.104;2023-02-12T07:55:30;99534.25;;;-4.05;88.31
61039;BME280;46919;45.816;3.104;2023-02-12T07:57:55;99524.94;;;-3.96;87.25
61039;BME280;46919;45.816;3.104;2023-02-12T08:00:21;99517.41;;;-3.88;86.73
61039;BME280;46919;45.816;3.104;2023-02-12T08:02:53;99515.22;;;-3.82;86.51
61039;BME280;46919;45.816;3.104;2023-02-12T08:05:19;99508.06;;;-3.79;85.96
61039;BME280;46919;45.816;3.104;2023-02-12T08:07:45;99504.28;;;-3.75;85.97
61039;BME280;46919;45.816;3.104;2023-02-12T08:10:10;99496.53;;;-3.64;85.93
61039;BME280;46919;45.816;3.104;2023-02-12T08:12:36;99507.19;;;-3.51;86.12
61039;BME280;46919;45.816;3.104;2023-02-12T08:15:01;99507.66;;;-3.44;85.68
61039;BME280;46919;45.816;3.104;2023-02-12T08:17:27;99505.69;;;-3.41;85.49
61039;BME280;46919;45.816;3.104;2023-02-12T08:19:52;99498.97;;;-3.32;85.09
61039;BME280;46919;45.816;3.104;2023-02-12T08:22:17;99496.28;;;-3.18;85.00
61039;BME280;46919;45.816;3.104;2023-02-12T08:24:43;99498.69;;;-3.00;84.35
61039;BME280;46919;45.816;3.104;2023-02-12T08:27:08;99505.84;;;-2.88;84.07
61039;BME280;46919;45.816;3.104;2023-02-12T08:29:34;99505.16;;;-2.77;83.76
61039;BME280;46919;45.816;3.104;2023-02-12T08:32:01;99495.94;;;-2.71;83.68
61039;BME280;46919;45.816;3.104;2023-02-12T08:34:32;99489.97;;;-2.61;83.88
61039;BME280;46919;45.816;3.104;2023-02-12T08:36:59;99504.53;;;-2.41;83.72
61039;BME280;46919;45.816;3.104;2023-02-12T08:39:27;99499.88;;;-2.24;83.21
61039;BME280;46919;45.816;3.104;2023-02-12T08:41:53;99502.75;;;-2.14;82.86
61039;BME280;46919;45.816;3.104;2023-02-12T08:44:19;99504.88;;;-2.07;82.99
61039;BME280;46919;45.816;3.104;2023-02-12T08:46:48;99505.00;;;-1.95;82.68
61039;BME280;46919;45.816;3.104;2023-02-12T08:49:17;99507.84;;;-1.86;82.36
61039;BME280;46919;45.816;3.104;2023-02-12T08:51:45;99513.91;;;-1.71;81.63
61039;BME280;46919;45.816;3.104;2023-02-12T08:54:14;99508.09;;;-1.63;81.45
61039;BME280;46919;45.816;3.104;2023-02-12T08:56:41;99501.28;;;-1.54;81.88
61039;BME280;46919;45.816;3.104;2023-02-12T08:59:07;99498.19;;;-1.48;81.26
61039;BME280;46919;45.816;3.104;2023-02-12T09:01:35;99496.72;;;-1.39;80.87
61039;BME280;46919;45.816;3.104;2023-02-12T09:04:09;99495.81;;;-1.27;80.43
61039;BME280;46919;45.816;3.104;2023-02-12T09:06:36;99496.75;;;-1.15;80.27
61039;BME280;46919;45.816;3.104;2023-02-12T09:09:02;99495.88;;;-1.03;79.95
61039;BME280;46919;45.816;3.104;2023-02-12T09:11:28;99497.59;;;-0.91;79.71
61039;BME280;46919;45.816;3.104;2023-02-12T09:14:07;99498.31;;;-0.76;79.21
61039;BME280;46919;45.816;3.104;2023-02-12T09:16:35;99506.44;;;-0.66;78.57
61039;BME280;46919;45.816;3.104;2023-02-12T09:19:02;99508.06;;;-0.52;78.49
61039;BME280;46919;45.816;3.104;2023-02-12T09:21:27;99496.44;;;-0.38;77.54
61039;BME280;46919;45.816;3.104;2023-02-12T09:23:53;99500.69;;;-0.24;77.06
61039;BME280;46919;45.816;3.104;2023-02-12T09:26:21;99499.88;;;-0.13;76.63
61039;BME280;46919;45.816;3.104;2023-02-12T09:28:49;99493.38;;;0.02;75.85
61039;BME280;46919;45.816;3.104;2023-02-12T09:31:17;99501.84;;;0.18;75.66
61039;BME280;46919;45.816;3.104;2023-02-12T09:33:45;99496.78;;;0.38;75.45
61039;BME280;46919;45.816;3.104;2023-02-12T09:36:13;99490.88;;;0.57;74.44
61039;BME280;46919;45.816;3.104;2023-02-12T09:38:39;99483.69;;;0.92;73.46
61039;BME280;46919;45.816;3.104;2023-02-12T09:46:31;99487.91;;;1.49;70.99
61039;BME280;46919;45.816;3.104;2023-02-12T09:49:25;99485.19;;;1.60;70.54
61039;BME280;46919;45.816;3.104;2023-02-12T09:52:00;99472.66;;;1.72;69.37
61039;BME280;46919;45.816;3.104;2023-02-12T09:54:36;99475.88;;;1.76;69.26
61039;BME280;46919;45.816;3.104;2023-02-12T09:57:10;99475.56;;;1.90;69.26
61039;BME280;46919;45.816;3.104;2023-02-12T10:00:14;99476.50;;;2.01;68.38
61039;BME280;46919;45.816;3.104;2023-02-12T10:02:40;99476.28;;;2.13;68.22
61039;BME280;46919;45.816;3.104;2023-02-12T10:05:19;99473.09;;;2.20;67.74
61039;BME280;46919;45.816;3.104;2023-02-12T10:13:17;99462.78;;;2.67;66.33
61039;BME280;46919;45.816;3.104;2023-02-12T10:16:05;99464.22;;;2.81;65.38
61039;BME280;46919;45.816;3.104;2023-02-12T10:21:55;99454.97;;;3.04;64.13
61039;BME280;46919;45.816;3.104;2023-02-12T10:25:20;99448.81;;;3.14;63.73
61039;BME280;46919;45.816;3.104;2023-02-12T10:27:40;99461.75;;;3.28;64.08
61039;BME280;46919;45.816;3.104;2023-02-12T10:30:33;99451.66;;;3.41;63.14
61039;BME280;46919;45.816;3.104;2023-02-12T10:33:09;99448.28;;;3.59;63.45
61039;BME280;46919;45.816;3.104;2023-02-12T10:35:43;99438.84;;;3.74;62.72
61039;BME280;46919;45.816;3.104;2023-02-12T10:38:19;99444.03;;;3.76;61.38
61039;BME280;46919;45.816;3.104;2023-02-12T10:40:46;99440.06;;;3.90;61.28
61039;BME280;46919;45.816;3.104;2023-02-12T10:43:12;99448.75;;;4.11;61.00
61039;BME280;46919;45.816;3.104;2023-02-12T10:45:39;99436.31;;;4.30;60.43
61039;BME280;46919;45.816;3.104;2023-02-12T10:48:21;99433.25;;;4.52;59.65
61039;BME280;46919;45.816;3.104;2023-02-12T10:53:41;99425.78;;;4.74;59.00
61039;BME280;46919;45.816;3.104;2023-02-12T10:56:15;99433.53;;;4.77;58.40
61039;BME280;46919;45.816;3.104;2023-02-12T10:58:59;99434.94;;;4.81;58.15
61039;BME280;46919;45.816;3.104;2023-02-12T11:03:54;99421.28;;;5.20;56.59
61039;BME280;46919;45.816;3.104;2023-02-12T11:06:30;99413.22;;;5.38;56.39
61039;BME280;46919;45.816;3.104;2023-02-12T11:08:56;99411.25;;;5.58;56.05
61039;BME280;46919;45.816;3.104;2023-02-12T11:11:30;99413.97;;;5.67;54.87
61039;BME280;46919;45.816;3.104;2023-02-12T11:14:08;99411.44;;;5.65;54.77
61039;BME280;46919;45.816;3.104;2023-02-12T11:16:50;99399.69;;;5.84;54.50
61039;BME280;46919;45.816;3.104;2023-02-12T11:19:22;99400.13;;;5.97;54.11
61039;BME280;46919;45.816;3.104;2023-02-12T11:21:49;99398.72;;;6.11;53.52
61039;BME280;46919;45.816;3.104;2023-02-12T11:24:33;99393.97;;;6.31;53.03
61039;BME280;46919;45.816;3.104;2023-02-12T11:27:19;99390.09;;;6.34;51.85
61039;BME280;46919;45.816;3.104;2023-02-12T11:29:45;99379.59;;;6.49;51.96
61039;BME280;46919;45.816;3.104;2023-02-12T11:32:17;99373.28;;;6.66;51.98
61039;BME280;46919;45.816;3.104;2023-02-12T11:34:43;99369.97;;;6.81;51.36
61039;BME280;46919;45.816;3.104;2023-02-12T11:37:16;99363.41;;;6.83;50.70
61039;BME280;46919;45.816;3.104;2023-02-12T11:39:46;99359.91;;;6.91;50.62
61039;BME280;46919;45.816;3.104;2023-02-12T11:42:21;99352.38;;;7.11;50.13
61039;BME280;46919;45.816;3.104;2023-02-12T11:44:56;99342.81;;;7.41;49.28
61039;BME280;46919;45.816;3.104;2023-02-12T11:47:27;99344.47;;;7.67;48.23
61039;BME280;46919;45.816;3.104;2023-02-12T11:52:26;99349.34;;;7.64;48.54
61039;BME280;46919;45.816;3.104;2023-02-12T11:54:59;99346.09;;;7.85;48.15
61039;BME280;46919;45.816;3.104;2023-02-12T11:57:37;99336.13;;;8.10;47.50
61039;BME280;46919;45.816;3.104;2023-02-12T12:00:25;99329.66;;;8.27;46.95
61039;BME280;46919;45.816;3.104;2023-02-12T12:03:24;99329.41;;;8.54;46.66
61039;BME280;46919;45.816;3.104;2023-02-12T12:05:53;99337.06;;;8.73;46.93
61039;BME280;46919;45.816;3.104;2023-02-12T12:08:39;99325.91;;;8.76;45.23
61039;BME280;46919;45.816;3.104;2023-02-12T12:11:13;99323.53;;;8.81;46.34
61039;BME280;46919;45.816;3.104;2023-02-12T12:13:47;99327.06;;;8.82;46.88
61039;BME280;46919;45.816;3.104;2023-02-12T12:16:26;99326.34;;;9.11;46.44
61039;BME280;46919;45.816;3.104;2023-02-12T12:19:23;99320.19;;;9.25;45.54
61039;BME280;46919;45.816;3.104;2023-02-12T12:22:22;99313.66;;;9.58;45.70
61039;BME280;46919;45.816;3.104;2023-02-12T12:25:46;99302.63;;;10.12;45.74
61039;BME280;46919;45.816;3.104;2023-02-12T12:33:37;99297.59;;;11.19;46.46
61039;BME280;46919;45.816;3.104;2023-02-12T12:41:35;99283.59;;;12.35;40.72
61039;BME280;46919;45.816;3.104;2023-02-12T12:44:30;99280.75;;;12.50;40.06
61039;BME280;46919;45.816;3.104;2023-02-12T12:52:15;99281.06;;;13.95;40.06
61039;BME280;46919;45.816;3.104;2023-02-12T13:06:07;99257.03;;;14.96;35.00
61039;BME280;46919;45.816;3.104;2023-02-12T13:16:57;99247.59;;;15.24;33.68
61039;BME280;46919;45.816;3.104;2023-02-12T13:19:40;99248.41;;;14.99;35.45
61039;BME280;46919;45.816;3.104;2023-02-12T13:22:39;99244.63;;;14.68;31.18
61039;BME280;46919;45.816;3.104;2023-02-12T13:28:30;99232.44;;;14.32;34.21
61039;BME280;46919;45.816;3.104;2023-02-12T13:30:59;99229.13;;;14.24;35.13
61039;BME280;46919;45.816;3.104;2023-02-12T13:33:44;99221.72;;;13.92;30.93
61039;BME280;46919;45.816;3.104;2023-02-12T13:36:13;99233.72;;;13.65;34.80
61039;BME280;46919;45.816;3.104;2023-02-12T13:39:02;99234.97;;;13.49;33.29
61039;BME280;46919;45.816;3.104;2023-02-12T13:41:28;99238.09;;;13.26;35.23
61039;BME280;46919;45.816;3.104;2023-02-12T13:44:25;99229.75;;;13.20;34.61
61039;BME280;46919;45.816;3.104;2023-02-12T13:47:12;99229.53;;;13.22;34.23
61039;BME280;46919;45.816;3.104;2023-02-12T13:49:50;99216.38;;;13.19;33.68
61039;BME280;46919;45.816;3.104;2023-02-12T13:55:21;99224.75;;;12.97;34.27
61039;BME280;46919;45.816;3.104;2023-02-12T14:03:22;99212.59;;;12.73;34.12
61039;BME280;46919;45.816;3.104;2023-02-12T14:06:15;99217.81;;;12.68;33.73
61039;BME280;46919;45.816;3.104;2023-02-12T14:09:09;99213.84;;;12.71;34.00
61039;BME280;46919;45.816;3.104;2023-02-12T14:11:45;99216.47;;;12.37;33.56
61039;BME280;46919;45.816;3.104;2023-02-12T14:14:12;99221.91;;;12.37;34.75
61039;BME280;46919;45.816;3.104;2023-02-12T14:16:39;99220.03;;;12.44;34.58
61039;BME280;46919;45.816;3.104;2023-02-12T14:27:56;99215.47;;;12.52;34.52
61039;BME280;46919;45.816;3.104;2023-02-12T14:35:32;99208.81;;;12.61;34.81
61039;BME280;46919;45.816;3.104;2023-02-12T14:38:00;99218.00;;;12.60;34.80
61039;BME280;46919;45.816;3.104;2023-02-12T14:42:57;99218.41;;;12.50;35.26
61039;BME280;46919;45.816;3.104;2023-02-12T14:45:32;99210.22;;;12.43;35.14
61039;BME280;46919;45.816;3.104;2023-02-12T14:47:58;99213.59;;;12.45;35.20
61039;BME280;46919;45.816;3.104;2023-02-12T14:50:28;99215.06;;;12.55;35.07
61039;BME280;46919;45.816;3.104;2023-02-12T14:53:06;99214.66;;;12.58;35.00
61039;BME280;46919;45.816;3.104;2023-02-12T14:55:39;99213.81;;;12.50;35.20
61039;BME280;46919;45.816;3.104;2023-02-12T14:58:19;99227.13;;;12.45;35.17
61039;BME280;46919;45.816;3.104;2023-02-12T15:00:46;99218.78;;;12.40;35.36
61039;BME280;46919;45.816;3.104;2023-02-12T15:08:38;99224.84;;;12.42;35.14
61039;BME280;46919;45.816;3.104;2023-02-12T15:17:02;99226.09;;;12.46;34.72
61039;BME280;46919;45.816;3.104;2023-02-12T15:22:21;99227.94;;;12.39;34.74
61039;BME280;46919;45.816;3.104;2023-02-12T15:24:47;99222.13;;;12.36;34.83
61039;BME280;46919;45.816;3.104;2023-02-12T15:27:14;99224.38;;;12.32;34.92
61039;BME280;46919;45.816;3.104;2023-02-12T15:29:40;99226.63;;;12.22;34.91
61039;BME280;46919;45.816;3.104;2023-02-12T15:32:22;99217.44;;;12.16;34.86
61039;BME280;46919;45.816;3.104;2023-02-12T15:34:50;99224.50;;;12.10;35.19
61039;BME280;46919;45.816;3.104;2023-02-12T15:37:28;99215.50;;;12.03;35.38
61039;BME280;46919;45.816;3.104;2023-02-12T15:39:59;99216.97;;;11.99;35.79
61039;BME280;46919;45.816;3.104;2023-02-12T15:42:32;99218.59;;;11.93;35.61
61039;BME280;46919;45.816;3.104;2023-02-12T15:45:21;99219.34;;;11.81;35.84
61039;BME280;46919;45.816;3.104;2023-02-12T15:50:33;99219.59;;;11.57;36.93